createdAt,value
2017-07-10T00:00:07.414Z,70.9
2017-07-10T00:01:08.755Z,70.8
2017-07-10T00:02:10.091Z,71.5
2017-07-10T00:03:12.115Z,71.2
2017-07-10T00:04:13.462Z,71.5
2017-07-10T00:05:14.810Z,70.8
2017-07-10T00:06:16.154Z,71.1
2017-07-10T00:07:17.489Z,71.3
2017-07-10T00:08:18.837Z,71.8
2017-07-10T00:09:20.183Z,71.6
2017-07-10T00:10:21.530Z,71.5
2017-07-10T00:11:22.869Z,71.9
2017-07-10T00:12:24.218Z,71.7
2017-07-10T00:13:25.554Z,71.1
2017-07-10T00:14:26.900Z,71.7
2017-07-10T00:15:28.248Z,71.5
2017-07-10T00:16:29.585Z,72.3
2017-07-10T00:17:30.924Z,71.6
2017-07-10T00:18:32.271Z,71.8
2017-07-10T00:19:35.167Z,71.3
2017-07-10T00:20:36.513Z,71.8
2017-07-10T00:21:37.872Z,71.9
2017-07-10T00:22:39.206Z,71.4
2017-07-10T00:23:40.555Z,72.2
2017-07-10T00:24:41.888Z,71.6
2017-07-10T00:25:43.236Z,72.2
2017-07-10T00:26:44.582Z,72.3
2017-07-10T00:27:45.925Z,71.8
2017-07-10T00:28:47.273Z,71.9
2017-07-10T00:29:48.615Z,71.7
2017-07-10T00:30:50.627Z,71.7
2017-07-10T00:31:51.973Z,71.9
2017-07-10T00:32:53.318Z,72.1
2017-07-10T00:33:55.563Z,71.5
2017-07-10T00:34:56.897Z,71.6
2017-07-10T00:35:58.235Z,71.7
2017-07-10T00:36:59.584Z,71.8
2017-07-10T00:38:01.649Z,72.6
2017-07-10T00:39:02.984Z,71.8
2017-07-10T00:40:04.335Z,71.7
2017-07-10T00:41:05.681Z,71.7
2017-07-10T00:42:07.650Z,71.5
2017-07-10T00:43:08.986Z,71.8
2017-07-10T00:44:10.332Z,72.2
2017-07-10T00:45:11.669Z,71.6
2017-07-10T00:46:13.005Z,71.7
2017-07-10T00:47:14.355Z,71.8
2017-07-10T00:48:15.693Z,72.6
2017-07-10T00:49:17.028Z,72.1
2017-07-10T00:50:18.365Z,72.1
2017-07-10T00:51:19.701Z,71.9
2017-07-10T00:52:21.043Z,71.7
2017-07-10T00:53:22.380Z,72.5
2017-07-10T00:54:23.719Z,72.0
2017-07-10T00:55:25.071Z,71.5
2017-07-10T00:56:26.402Z,72.1
2017-07-10T00:57:27.795Z,71.7
2017-07-10T00:58:29.075Z,72.7
2017-07-10T00:59:30.423Z,72.0
2017-07-10T01:00:31.758Z,71.6
2017-07-10T01:01:34.051Z,72.2
2017-07-10T01:02:35.398Z,72.6
2017-07-10T01:03:36.743Z,72.4
2017-07-10T01:04:38.081Z,72.8
2017-07-10T01:05:39.416Z,72.6
2017-07-10T01:06:41.579Z,72.5
2017-07-10T01:07:42.927Z,72.7
2017-07-10T01:08:44.271Z,72.5
2017-07-10T01:09:45.606Z,72.6
2017-07-10T01:10:46.953Z,72.3
2017-07-10T01:11:48.300Z,72.7
2017-07-10T01:12:49.644Z,72.5
2017-07-10T01:13:50.982Z,72.7
2017-07-10T01:14:53.063Z,72.5
2017-07-10T01:15:54.400Z,72.7
2017-07-10T01:16:55.740Z,72.8
2017-07-10T01:17:57.077Z,72.6
2017-07-10T01:18:59.031Z,72.7
2017-07-10T01:20:01.030Z,73.0
2017-07-10T01:21:02.377Z,71.9
2017-07-10T01:22:03.710Z,72.7
2017-07-10T01:23:05.060Z,72.5
2017-07-10T01:24:07.072Z,72.4
2017-07-10T01:25:08.417Z,71.9
2017-07-10T01:26:09.752Z,72.5
2017-07-10T01:27:11.097Z,72.8
2017-07-10T01:28:12.443Z,72.3
2017-07-10T01:29:13.779Z,73.0
2017-07-10T01:30:15.126Z,72.5
2017-07-10T01:31:16.468Z,72.4
2017-07-10T01:32:17.796Z,72.7
2017-07-10T01:33:19.135Z,72.5
2017-07-10T01:34:20.479Z,73.0
2017-07-10T01:35:22.424Z,72.6
2017-07-10T01:36:23.763Z,72.8
2017-07-10T01:37:25.103Z,72.6
2017-07-10T01:38:26.439Z,72.7
2017-07-10T01:39:27.775Z,73.5
2017-07-10T01:40:29.117Z,72.4
2017-07-10T01:41:30.452Z,72.7
2017-07-10T01:42:31.790Z,72.9
2017-07-10T01:43:33.127Z,73.5
2017-07-10T01:44:34.469Z,72.6
2017-07-10T01:45:35.806Z,72.9
2017-07-10T01:46:37.142Z,72.6
2017-07-10T01:47:38.483Z,72.9
2017-07-10T01:48:39.827Z,72.6
2017-07-10T01:49:41.169Z,72.6
2017-07-10T01:50:42.507Z,73.2
2017-07-10T01:51:43.844Z,73.1
2017-07-10T01:52:45.185Z,72.7
2017-07-10T01:53:46.520Z,73.2
2017-07-10T01:54:47.872Z,73.1
2017-07-10T01:55:49.206Z,73.1
2017-07-10T01:56:50.557Z,72.8
2017-07-10T01:57:51.895Z,73.0
2017-07-10T01:58:53.241Z,72.9
2017-07-10T01:59:54.576Z,73.0
2017-07-10T02:00:55.911Z,73.5
2017-07-10T02:01:57.257Z,73.1
2017-07-10T02:02:58.603Z,72.6
2017-07-10T02:03:59.939Z,72.8
2017-07-10T02:05:01.286Z,73.5
2017-07-10T02:06:02.630Z,73.2
2017-07-10T02:07:03.964Z,72.9
2017-07-10T02:08:05.312Z,72.6
2017-07-10T02:09:06.659Z,72.7
2017-07-10T02:10:08.954Z,73.0
2017-07-10T02:11:09.787Z,72.7
2017-07-10T02:12:11.134Z,72.4
2017-07-10T02:13:12.473Z,72.3
2017-07-10T02:14:13.811Z,72.7
2017-07-10T02:15:15.148Z,73.1
2017-07-10T02:16:16.494Z,72.9
2017-07-10T02:17:17.839Z,73.1
2017-07-10T02:18:19.175Z,73.4
2017-07-10T02:19:20.511Z,73.0
2017-07-10T02:20:21.863Z,73.1
2017-07-10T02:21:23.203Z,72.9
2017-07-10T02:22:24.547Z,73.0
2017-07-10T02:23:25.882Z,72.7
2017-07-10T02:24:27.229Z,73.2
2017-07-10T02:25:28.573Z,72.4
2017-07-10T02:26:29.907Z,72.9
2017-07-10T02:27:31.806Z,73.1
2017-07-10T02:28:33.153Z,72.7
2017-07-10T02:29:34.485Z,73.3
2017-07-10T02:30:36.550Z,72.8
2017-07-10T02:31:37.900Z,72.8
2017-07-10T02:32:40.039Z,72.7
2017-07-10T02:33:41.379Z,72.9
2017-07-10T02:34:42.718Z,73.3
2017-07-10T02:35:44.634Z,73.1
2017-07-10T02:36:45.970Z,73.0
2017-07-10T02:37:47.317Z,73.3
2017-07-10T02:38:48.660Z,73.3
2017-07-10T02:39:50.006Z,73.0
2017-07-10T02:40:51.394Z,72.8
2017-07-10T02:41:52.685Z,72.8
2017-07-10T02:42:54.028Z,73.3
2017-07-10T02:43:55.370Z,73.1
2017-07-10T02:44:56.707Z,73.0
2017-07-10T02:45:58.057Z,73.2
2017-07-10T02:46:59.393Z,73.3
2017-07-10T02:48:00.737Z,73.1
2017-07-10T02:49:02.085Z,73.0
2017-07-10T02:50:03.421Z,73.2
2017-07-10T02:51:05.506Z,72.7
2017-07-10T02:52:06.905Z,72.9
2017-07-10T02:53:08.184Z,73.1
2017-07-10T02:54:09.534Z,72.8
2017-07-10T02:55:11.539Z,72.8
2017-07-10T02:56:12.882Z,73.0
2017-07-10T02:57:14.220Z,73.4
2017-07-10T02:58:15.695Z,73.9
2017-07-10T02:59:17.057Z,73.1
2017-07-10T03:00:18.393Z,73.1
2017-07-10T03:01:19.732Z,73.2
2017-07-10T03:02:21.081Z,72.6
2017-07-10T03:03:22.416Z,73.0
2017-07-10T03:04:23.758Z,72.9
2017-07-10T03:05:25.133Z,72.5
2017-07-10T03:06:26.477Z,73.1
2017-07-10T03:07:27.821Z,73.0
2017-07-10T03:08:29.232Z,73.3
2017-07-10T03:09:30.565Z,73.2
2017-07-10T03:10:31.903Z,72.8
2017-07-10T03:11:33.252Z,73.5
2017-07-10T03:12:34.595Z,73.2
2017-07-10T03:13:35.964Z,73.0
2017-07-10T03:14:37.280Z,73.2
2017-07-10T03:15:38.617Z,73.5
2017-07-10T03:16:39.953Z,73.2
2017-07-10T03:17:41.301Z,73.2
2017-07-10T03:18:42.646Z,72.8
2017-07-10T03:19:43.979Z,72.8
2017-07-10T03:20:45.324Z,73.4
2017-07-10T03:21:46.665Z,73.0
2017-07-10T03:22:48.007Z,73.3
2017-07-10T03:23:49.360Z,73.0
2017-07-10T03:24:50.707Z,72.8
2017-07-10T03:25:52.056Z,73.4
2017-07-10T03:26:53.389Z,73.2
2017-07-10T03:27:54.726Z,72.9
2017-07-10T03:28:56.666Z,73.1
2017-07-10T03:29:58.015Z,73.2
2017-07-10T03:30:59.373Z,73.2
2017-07-10T03:32:00.709Z,73.1
2017-07-10T03:33:02.051Z,73.2
2017-07-10T03:34:03.388Z,73.2
2017-07-10T03:35:04.731Z,73.3
2017-07-10T03:36:06.075Z,73.3
2017-07-10T03:37:07.424Z,73.2
2017-07-10T03:38:09.409Z,73.0
2017-07-10T03:39:10.749Z,73.2
2017-07-10T03:40:12.090Z,73.1
2017-07-10T03:41:13.432Z,72.6
2017-07-10T03:42:14.769Z,73.0
2017-07-10T03:43:16.108Z,72.7
2017-07-10T03:44:17.463Z,73.0
2017-07-10T03:45:18.811Z,73.3
2017-07-10T03:46:20.160Z,73.1
2017-07-10T03:47:21.499Z,73.2
2017-07-10T03:48:22.834Z,73.3
2017-07-10T03:49:24.183Z,73.3
2017-07-10T03:50:25.516Z,73.4
2017-07-10T03:51:26.858Z,73.2
2017-07-10T03:52:28.196Z,73.1
2017-07-10T03:53:29.543Z,72.8
2017-07-10T03:54:30.892Z,73.2
2017-07-10T03:55:32.240Z,73.2
2017-07-10T03:56:34.531Z,73.3
2017-07-10T03:57:35.866Z,73.1
2017-07-10T03:58:37.202Z,73.3
2017-07-10T03:59:38.549Z,73.2
2017-07-10T04:00:40.621Z,73.2
2017-07-10T04:01:41.965Z,73.2
2017-07-10T04:02:43.309Z,72.8
2017-07-10T04:03:44.643Z,73.2
2017-07-10T04:04:45.993Z,73.5
2017-07-10T04:05:47.331Z,73.2
2017-07-10T04:06:49.358Z,73.2
2017-07-10T04:07:50.698Z,72.9
2017-07-10T04:08:52.043Z,73.5
2017-07-10T04:09:53.382Z,73.1
2017-07-10T04:10:54.725Z,73.0
2017-07-10T04:11:56.650Z,73.0
2017-07-10T04:12:57.996Z,73.0
2017-07-10T04:13:59.336Z,73.2
2017-07-10T04:15:01.184Z,72.9
2017-07-10T04:16:02.520Z,72.5
2017-07-10T04:17:03.855Z,73.4
2017-07-10T04:18:05.203Z,73.0
2017-07-10T04:19:06.548Z,72.9
2017-07-10T04:20:07.894Z,72.9
2017-07-10T04:21:09.229Z,72.9
2017-07-10T04:22:10.577Z,72.9
2017-07-10T04:23:11.913Z,72.6
2017-07-10T04:24:13.256Z,72.7
2017-07-10T04:25:14.594Z,73.0
2017-07-10T04:26:15.941Z,73.0
2017-07-10T04:27:17.800Z,73.2
2017-07-10T04:28:19.144Z,73.3
2017-07-10T04:29:20.482Z,73.2
2017-07-10T04:30:22.477Z,73.9
2017-07-10T04:31:24.392Z,73.6
2017-07-10T04:32:25.736Z,73.8
2017-07-10T04:33:27.082Z,73.9
2017-07-10T04:34:28.418Z,73.8
2017-07-10T04:35:29.765Z,74.0
2017-07-10T04:36:31.113Z,73.7
2017-07-10T04:37:32.461Z,73.5
2017-07-10T04:38:33.804Z,74.2
2017-07-10T04:39:35.149Z,74.2
2017-07-10T04:40:36.487Z,74.2
2017-07-10T04:41:37.827Z,74.6
2017-07-10T04:42:39.165Z,74.7
2017-07-10T04:43:40.541Z,74.5
2017-07-10T04:44:41.888Z,74.3
2017-07-10T04:46:22.869Z,74.8
2017-07-10T04:47:24.214Z,74.7
2017-07-10T04:48:45.633Z,74.7
2017-07-10T04:49:46.968Z,74.6
2017-07-10T04:51:08.384Z,74.7
2017-07-10T04:52:09.720Z,74.8
2017-07-10T04:53:31.516Z,75.4
2017-07-10T04:54:32.864Z,75.3
2017-07-10T04:55:54.274Z,75.5
2017-07-10T04:56:55.611Z,75.1
2017-07-10T04:58:17.026Z,75.3
2017-07-10T04:59:19.249Z,75.9
2017-07-10T05:00:40.980Z,75.6
2017-07-10T05:01:42.318Z,75.5
2017-07-10T05:03:03.735Z,75.4
2017-07-10T05:04:05.071Z,75.8
2017-07-10T05:05:26.493Z,75.6
2017-07-10T05:06:27.832Z,75.9
2017-07-10T05:07:49.557Z,76.2
2017-07-10T05:08:51.371Z,76.1
2017-07-10T05:10:12.324Z,75.9
2017-07-10T05:11:13.662Z,76.0
2017-07-10T05:12:35.081Z,76.3
2017-07-10T05:13:36.415Z,77.0
2017-07-10T05:14:58.135Z,76.3
2017-07-10T05:15:59.467Z,76.4
2017-07-10T05:17:21.502Z,76.1
2017-07-10T05:18:22.170Z,76.7
2017-07-10T05:19:44.269Z,76.2
2017-07-10T05:20:45.605Z,76.5
2017-07-10T05:22:08.154Z,75.8
2017-07-10T05:23:09.488Z,76.4
2017-07-10T05:24:30.913Z,76.4
2017-07-10T05:25:32.247Z,76.2
2017-07-10T05:26:53.763Z,77.0
2017-07-10T05:27:55.800Z,76.9
2017-07-10T05:29:17.514Z,76.9
2017-07-10T05:30:18.848Z,77.0
2017-07-10T05:31:40.267Z,77.0
2017-07-10T05:32:41.614Z,77.2
2017-07-10T05:34:03.023Z,76.8
2017-07-10T05:35:04.360Z,76.7
2017-07-10T05:36:26.073Z,76.9
2017-07-10T05:37:27.413Z,76.7
2017-07-10T05:38:48.833Z,76.9
2017-07-10T05:39:50.168Z,76.6
2017-07-10T05:41:11.594Z,76.8
2017-07-10T05:42:12.926Z,76.9
2017-07-10T05:43:34.709Z,76.9
2017-07-10T05:44:36.043Z,76.7
2017-07-10T05:45:57.464Z,76.9
2017-07-10T05:46:58.798Z,76.8
2017-07-10T05:48:20.213Z,77.0
2017-07-10T05:49:21.550Z,77.6
2017-07-10T05:50:44.644Z,76.9
2017-07-10T05:51:45.980Z,77.0
2017-07-10T05:53:08.505Z,76.9
2017-07-10T05:54:09.851Z,76.8
2017-07-10T05:55:32.053Z,77.0
2017-07-10T05:56:34.187Z,77.0
2017-07-10T05:58:35.319Z,76.8
2017-07-10T05:59:37.271Z,76.9
2017-07-10T06:00:58.693Z,77.7
2017-07-10T06:02:00.028Z,76.7
2017-07-10T06:03:21.649Z,77.8
2017-07-10T06:04:22.986Z,77.9
2017-07-10T06:05:44.397Z,76.9
2017-07-10T06:06:45.739Z,77.0
2017-07-10T06:08:08.148Z,77.0
2017-07-10T06:09:09.504Z,77.2
2017-07-10T06:10:31.286Z,77.2
2017-07-10T06:11:32.633Z,77.3
2017-07-10T06:12:54.052Z,76.8
2017-07-10T06:13:55.386Z,77.6
2017-07-10T06:15:16.823Z,77.8
2017-07-10T06:16:18.159Z,77.0
2017-07-10T06:17:39.929Z,77.0
2017-07-10T06:18:41.273Z,77.6
2017-07-10T06:20:02.690Z,76.8
2017-07-10T06:21:04.531Z,76.9
2017-07-10T06:22:26.891Z,77.0
2017-07-10T06:23:28.239Z,77.3
2017-07-10T06:24:51.273Z,76.8
2017-07-10T06:25:52.318Z,76.9
2017-07-10T06:27:13.732Z,77.2
2017-07-10T06:28:15.088Z,76.7
2017-07-10T06:29:36.644Z,76.8
2017-07-10T06:30:37.949Z,77.1
2017-07-10T06:31:39.286Z,77.0
2017-07-10T06:32:41.485Z,77.8
2017-07-10T06:33:42.829Z,77.7
2017-07-10T06:34:44.186Z,77.5
2017-07-10T06:35:45.535Z,77.6
2017-07-10T06:36:47.044Z,76.7
2017-07-10T06:37:48.405Z,77.4
2017-07-10T06:38:50.133Z,77.4
2017-07-10T06:39:51.712Z,77.2
2017-07-10T06:40:53.935Z,76.8
2017-07-10T06:41:55.285Z,77.8
2017-07-10T06:42:56.631Z,77.0
2017-07-10T06:43:58.048Z,77.7
2017-07-10T06:44:59.393Z,77.7
2017-07-10T06:46:01.630Z,77.4
2017-07-10T06:47:03.010Z,77.5
2017-07-10T06:48:04.349Z,77.8
2017-07-10T06:49:05.687Z,77.1
2017-07-10T06:50:07.040Z,77.6
2017-07-10T06:51:08.375Z,77.5
2017-07-10T06:52:09.720Z,77.9
2017-07-10T06:53:11.056Z,77.0
2017-07-10T06:54:12.401Z,77.7
2017-07-10T06:55:13.745Z,77.6
2017-07-10T06:56:15.095Z,77.6
2017-07-10T06:57:16.436Z,77.8
2017-07-10T06:58:17.787Z,77.2
2017-07-10T06:59:19.121Z,77.9
2017-07-10T07:00:20.459Z,77.4
2017-07-10T07:01:21.800Z,77.1
2017-07-10T07:02:23.139Z,78.0
2017-07-10T07:03:24.477Z,78.0
2017-07-10T07:04:25.817Z,77.7
2017-07-10T07:05:27.158Z,77.8
2017-07-10T07:06:28.496Z,77.4
2017-07-10T07:07:29.840Z,77.5
2017-07-10T07:08:31.183Z,77.9
2017-07-10T07:09:33.079Z,77.3
2017-07-10T07:10:34.418Z,77.9
2017-07-10T07:11:35.769Z,77.8
2017-07-10T07:12:37.107Z,77.6
2017-07-10T07:13:39.038Z,77.6
2017-07-10T07:14:40.471Z,77.3
2017-07-10T07:15:41.807Z,77.5
2017-07-10T07:16:43.149Z,77.2
2017-07-10T07:17:44.499Z,77.8
2017-07-10T07:18:45.848Z,77.7
2017-07-10T07:19:47.307Z,77.9
2017-07-10T07:20:48.906Z,77.7
2017-07-10T07:21:50.724Z,77.5
2017-07-10T07:22:52.116Z,77.4
2017-07-10T07:23:53.464Z,76.9
2017-07-10T07:24:54.799Z,77.7
2017-07-10T07:25:56.151Z,77.8
2017-07-10T07:26:57.494Z,78.1
2017-07-10T07:27:58.843Z,77.8
2017-07-10T07:29:00.771Z,77.2
2017-07-10T07:30:02.115Z,77.0
2017-07-10T07:31:03.453Z,76.9
2017-07-10T07:32:04.798Z,77.5
2017-07-10T07:33:06.138Z,77.0
2017-07-10T07:34:07.493Z,77.1
2017-07-10T07:35:08.826Z,76.8
2017-07-10T07:36:10.712Z,77.2
2017-07-10T07:37:12.052Z,77.2
2017-07-10T07:38:13.392Z,76.9
2017-07-10T07:39:14.742Z,76.7
2017-07-10T07:40:19.085Z,77.2
2017-07-10T07:41:20.627Z,76.8
2017-07-10T07:42:21.974Z,76.7
2017-07-10T07:43:23.321Z,76.7
2017-07-10T07:44:24.684Z,76.4
2017-07-10T07:45:26.188Z,76.9
2017-07-10T07:46:27.730Z,77.1
2017-07-10T07:47:29.114Z,76.8
2017-07-10T07:48:30.704Z,77.0
2017-07-10T07:49:32.199Z,76.8
2017-07-10T07:50:33.541Z,76.9
2017-07-10T07:51:35.103Z,76.9
2017-07-10T07:52:36.479Z,76.6
2017-07-10T07:53:37.818Z,77.0
2017-07-10T07:54:39.158Z,76.9
2017-07-10T07:55:40.508Z,76.8
2017-07-10T07:56:41.851Z,76.9
2017-07-10T07:57:43.848Z,77.1
2017-07-10T07:58:45.196Z,76.9
2017-07-10T07:59:46.560Z,77.0
2017-07-10T08:00:47.855Z,77.0
2017-07-10T08:01:49.205Z,76.6
2017-07-10T08:02:50.539Z,77.5
2017-07-10T08:03:51.890Z,77.9
2017-07-10T08:04:53.767Z,76.7
2017-07-10T08:05:55.102Z,77.3
2017-07-10T08:06:56.493Z,77.2
2017-07-10T08:07:57.783Z,77.2
2017-07-10T08:08:59.125Z,77.3
2017-07-10T08:10:00.464Z,76.9
2017-07-10T08:11:01.820Z,77.6
2017-07-10T08:12:03.853Z,76.8
2017-07-10T08:13:05.796Z,76.9
2017-07-10T08:14:07.150Z,76.7
2017-07-10T08:15:08.506Z,76.9
2017-07-10T08:16:09.855Z,77.2
2017-07-10T08:17:11.196Z,77.2
2017-07-10T08:18:12.534Z,77.1
2017-07-10T08:19:13.891Z,76.9
2017-07-10T08:20:15.223Z,76.9
2017-07-10T08:21:16.573Z,77.0
2017-07-10T08:22:17.909Z,77.2
2017-07-10T08:23:19.256Z,77.5
2017-07-10T08:24:20.599Z,76.8
2017-07-10T08:25:21.944Z,77.0
2017-07-10T08:26:23.293Z,76.8
2017-07-10T08:27:24.616Z,76.7
2017-07-10T08:28:26.661Z,76.9
2017-07-10T08:29:27.998Z,77.0
2017-07-10T08:30:29.353Z,77.9
2017-07-10T08:31:30.701Z,76.9
2017-07-10T08:32:32.045Z,78.0
2017-07-10T08:33:33.390Z,77.6
2017-07-10T08:34:34.728Z,77.7
2017-07-10T08:35:36.071Z,77.4
2017-07-10T08:36:37.411Z,77.6
2017-07-10T08:37:38.751Z,77.6
2017-07-10T08:38:41.031Z,77.6
2017-07-10T08:39:42.369Z,77.4
2017-07-10T08:40:43.726Z,77.2
2017-07-10T08:41:45.060Z,77.4
2017-07-10T08:42:46.411Z,77.9
2017-07-10T08:43:47.749Z,77.8
2017-07-10T08:44:49.097Z,78.0
2017-07-10T08:45:50.440Z,78.0
2017-07-10T08:46:51.778Z,77.1
2017-07-10T08:47:53.126Z,77.7
2017-07-10T08:48:54.464Z,77.5
2017-07-10T08:49:56.556Z,77.8
2017-07-10T08:50:57.896Z,77.8
2017-07-10T08:51:59.247Z,77.8
2017-07-10T08:53:00.594Z,77.5
2017-07-10T08:54:01.931Z,77.1
2017-07-10T08:55:03.275Z,77.6
2017-07-10T08:56:04.622Z,77.6
2017-07-10T08:57:05.970Z,77.3
2017-07-10T08:58:08.262Z,77.7
2017-07-10T08:59:09.606Z,76.9
2017-07-10T09:00:10.958Z,77.7
2017-07-10T09:01:12.302Z,77.0
2017-07-10T09:02:13.649Z,77.6
2017-07-10T09:03:14.991Z,77.9
2017-07-10T09:04:16.327Z,77.9
2017-07-10T09:05:17.668Z,77.6
2017-07-10T09:06:19.014Z,78.0
2017-07-10T09:07:20.351Z,77.2
2017-07-10T09:08:21.695Z,77.5
2017-07-10T09:09:23.032Z,77.8
2017-07-10T09:10:24.367Z,77.7
2017-07-10T09:11:25.705Z,77.3
2017-07-10T09:12:27.041Z,78.0
2017-07-10T09:13:28.388Z,77.5
2017-07-10T09:14:29.735Z,77.8
2017-07-10T09:15:31.070Z,77.8
2017-07-10T09:16:32.416Z,77.2
2017-07-10T09:17:33.759Z,78.5
2017-07-10T09:18:35.097Z,77.7
2017-07-10T09:19:36.453Z,77.6
2017-07-10T09:20:37.820Z,77.7
2017-07-10T09:21:39.184Z,77.9
2017-07-10T09:22:40.526Z,77.9
2017-07-10T09:23:41.861Z,78.2
2017-07-10T09:24:43.231Z,77.8
2017-07-10T09:25:45.332Z,77.9
2017-07-10T09:26:46.672Z,77.8
2017-07-10T09:27:48.017Z,77.6
2017-07-10T09:28:49.356Z,78.0
2017-07-10T09:29:50.704Z,78.7
2017-07-10T09:30:52.054Z,77.5
2017-07-10T09:31:53.451Z,78.3
2017-07-10T09:32:54.761Z,77.6
2017-07-10T09:33:56.105Z,77.9
2017-07-10T09:34:58.034Z,77.8
2017-07-10T09:35:59.372Z,77.4
2017-07-10T09:37:00.727Z,77.4
2017-07-10T09:38:02.080Z,77.8
2017-07-10T09:39:03.418Z,77.5
2017-07-10T09:40:04.769Z,77.7
2017-07-10T09:41:06.122Z,77.6
2017-07-10T09:42:07.472Z,77.7
2017-07-10T09:43:09.534Z,77.5
2017-07-10T09:44:10.869Z,77.2
2017-07-10T09:45:12.213Z,77.4
2017-07-10T09:46:13.560Z,77.4
2017-07-10T09:47:14.908Z,77.5
2017-07-10T09:48:16.256Z,77.5
2017-07-10T09:49:17.593Z,77.5
2017-07-10T09:50:18.947Z,77.6
2017-07-10T09:51:20.284Z,77.2
2017-07-10T09:52:21.642Z,77.5
2017-07-10T09:53:22.987Z,77.8
2017-07-10T09:54:24.336Z,77.2
2017-07-10T09:55:25.673Z,78.0
2017-07-10T09:56:27.028Z,77.7
2017-07-10T09:57:29.273Z,78.0
2017-07-10T09:58:30.630Z,77.7
2017-07-10T09:59:31.974Z,77.8
2017-07-10T10:00:33.313Z,78.1
2017-07-10T10:01:34.653Z,77.2
2017-07-10T10:02:36.944Z,77.8
2017-07-10T10:03:38.289Z,77.9
2017-07-10T10:04:39.638Z,77.6
2017-07-10T10:05:40.974Z,77.6
2017-07-10T10:06:42.341Z,77.8
2017-07-10T10:07:43.683Z,77.8
2017-07-10T10:08:45.031Z,77.9
2017-07-10T10:09:46.400Z,77.7
2017-07-10T10:10:47.745Z,77.5
2017-07-10T10:11:49.081Z,77.5
2017-07-10T10:12:50.440Z,77.7
2017-07-10T10:13:51.791Z,77.8
2017-07-10T10:14:53.128Z,77.2
2017-07-10T10:15:54.468Z,77.6
2017-07-10T10:16:55.817Z,78.4
2017-07-10T10:17:57.164Z,77.5
2017-07-10T10:18:59.799Z,77.6
2017-07-10T10:20:01.135Z,77.9
2017-07-10T10:21:02.628Z,77.8
2017-07-10T10:22:04.082Z,78.1
2017-07-10T10:23:05.419Z,77.8
2017-07-10T10:24:06.768Z,78.3
2017-07-10T10:25:08.118Z,78.3
2017-07-10T10:26:09.478Z,78.4
2017-07-10T10:27:10.821Z,78.2
2017-07-10T10:28:12.745Z,77.3
2017-07-10T10:29:14.980Z,77.8
2017-07-10T10:30:16.328Z,78.1
2017-07-10T10:31:17.671Z,78.0
2017-07-10T10:32:19.023Z,77.9
2017-07-10T10:33:20.408Z,77.7
2017-07-10T10:34:22.750Z,78.3
2017-07-10T10:35:24.096Z,78.4
2017-07-10T10:36:25.434Z,77.8
2017-07-10T10:37:26.775Z,77.4
2017-07-10T10:38:28.115Z,77.2
2017-07-10T10:39:29.514Z,78.1
2017-07-10T10:40:31.688Z,77.8
2017-07-10T10:41:33.036Z,77.8
2017-07-10T10:42:34.373Z,78.0
2017-07-10T10:43:35.714Z,78.0
2017-07-10T10:44:37.052Z,77.8
2017-07-10T10:45:38.464Z,77.4
2017-07-10T10:46:39.805Z,77.6
2017-07-10T10:47:42.156Z,77.7
2017-07-10T10:48:43.504Z,77.7
2017-07-10T10:49:44.843Z,77.5
2017-07-10T10:50:46.204Z,77.8
2017-07-10T10:51:47.554Z,77.4
2017-07-10T10:52:48.901Z,77.8
2017-07-10T10:53:50.247Z,77.5
2017-07-10T10:54:51.596Z,77.7
2017-07-10T10:55:52.933Z,77.8
2017-07-10T10:56:54.283Z,77.4
2017-07-10T10:57:55.619Z,77.5
2017-07-10T10:58:56.958Z,77.6
2017-07-10T10:59:58.312Z,77.8
2017-07-10T11:00:59.668Z,77.4
2017-07-10T11:02:01.000Z,77.8
2017-07-10T11:03:02.414Z,77.8
2017-07-10T11:04:03.754Z,77.8
2017-07-10T11:05:05.090Z,77.8
2017-07-10T11:06:06.442Z,77.8
2017-07-10T11:07:07.795Z,77.7
2017-07-10T11:08:09.144Z,77.5
2017-07-10T11:09:10.504Z,77.7
2017-07-10T11:10:11.850Z,77.7
2017-07-10T11:11:13.185Z,77.6
2017-07-10T11:12:14.541Z,76.8
2017-07-10T11:13:16.565Z,76.7
2017-07-10T11:14:17.907Z,77.6
2017-07-10T11:15:19.246Z,76.8
2017-07-10T11:16:20.598Z,76.8
2017-07-10T11:17:22.363Z,77.0
2017-07-10T11:18:23.728Z,76.9
2017-07-10T11:19:25.070Z,77.0
2017-07-10T11:20:27.127Z,76.8
2017-07-10T11:21:28.476Z,77.0
2017-07-10T11:22:29.815Z,76.8
2017-07-10T11:23:31.164Z,77.0
2017-07-10T11:24:32.508Z,77.0
2017-07-10T11:25:33.845Z,77.5
2017-07-10T11:26:37.663Z,77.5
2017-07-10T11:27:38.742Z,77.6
2017-07-10T11:28:40.082Z,77.0
2017-07-10T11:29:41.431Z,76.7
2017-07-10T11:30:43.505Z,78.0
2017-07-10T11:31:44.844Z,76.5
2017-07-10T11:32:46.191Z,77.0
2017-07-10T11:33:47.529Z,76.6
2017-07-10T11:34:48.879Z,76.6
2017-07-10T11:35:50.224Z,76.9
2017-07-10T11:36:51.565Z,76.8
2017-07-10T11:37:52.914Z,77.2
2017-07-10T11:38:54.769Z,76.8
2017-07-10T11:39:56.112Z,76.2
2017-07-10T11:40:57.461Z,76.4
2017-07-10T11:41:58.812Z,76.7
2017-07-10T11:43:00.158Z,77.8
2017-07-10T11:44:01.499Z,76.3
2017-07-10T11:45:02.851Z,76.9
2017-07-10T11:46:04.189Z,75.9
2017-07-10T11:47:05.530Z,76.6
2017-07-10T11:48:06.879Z,74.7
2017-07-10T11:49:08.228Z,75.4
2017-07-10T11:50:09.580Z,76.2
2017-07-10T11:51:11.004Z,76.1
2017-07-10T11:52:12.286Z,76.0
2017-07-10T11:53:14.162Z,76.6
2017-07-10T11:54:15.499Z,75.3
2017-07-10T11:55:16.840Z,75.7
2017-07-10T11:56:18.192Z,75.9
2017-07-10T11:57:19.537Z,75.5
2017-07-10T11:58:20.884Z,75.5
2017-07-10T11:59:22.239Z,74.5
2017-07-10T12:00:23.573Z,74.6
2017-07-10T12:01:24.913Z,75.3
2017-07-10T12:02:26.256Z,76.0
2017-07-10T12:03:27.597Z,75.7
2017-07-10T12:04:28.960Z,76.1
2017-07-10T12:05:30.300Z,76.1
2017-07-10T12:06:31.651Z,76.1
2017-07-10T12:07:32.988Z,74.7
2017-07-10T12:08:35.033Z,75.5
2017-07-10T12:09:36.377Z,75.7
2017-07-10T12:10:37.717Z,75.4
2017-07-10T12:11:39.071Z,75.2
2017-07-10T12:12:40.413Z,75.3
2017-07-10T12:13:41.753Z,75.2
2017-07-10T12:14:43.097Z,75.1
2017-07-10T12:15:44.436Z,75.7
2017-07-10T12:16:45.787Z,74.2
2017-07-10T12:17:47.134Z,75.6
2017-07-10T12:18:48.484Z,75.6
2017-07-10T12:19:49.836Z,75.3
2017-07-10T12:20:51.177Z,74.4
2017-07-10T12:21:52.521Z,75.1
2017-07-10T12:22:53.864Z,74.8
2017-07-10T12:23:55.753Z,75.6
2017-07-10T12:24:57.109Z,75.4
2017-07-10T12:25:58.463Z,73.5
2017-07-10T12:26:59.797Z,74.6
2017-07-10T12:28:01.159Z,74.2
2017-07-10T12:29:02.497Z,74.2
2017-07-10T12:30:04.664Z,73.8
2017-07-10T12:31:06.678Z,73.6
2017-07-10T12:32:08.012Z,74.9
2017-07-10T12:33:09.355Z,74.1
2017-07-10T12:34:10.702Z,74.4
2017-07-10T12:35:12.846Z,74.3
2017-07-10T12:36:14.203Z,74.5
2017-07-10T12:37:15.540Z,74.8
2017-07-10T12:38:16.891Z,74.6
2017-07-10T12:39:18.230Z,74.8
2017-07-10T12:40:19.580Z,74.7
2017-07-10T12:41:20.920Z,74.7
2017-07-10T12:42:22.264Z,73.6
2017-07-10T12:43:24.264Z,74.8
2017-07-10T12:44:25.620Z,74.9
2017-07-10T12:45:26.964Z,73.6
2017-07-10T12:46:28.315Z,74.5
2017-07-10T12:47:29.651Z,74.6
2017-07-10T12:48:30.992Z,74.2
2017-07-10T12:49:32.346Z,74.6
2017-07-10T12:50:33.683Z,74.2
2017-07-10T12:51:35.024Z,74.3
2017-07-10T12:52:36.365Z,73.8
2017-07-10T12:53:37.706Z,74.8
2017-07-10T12:54:39.056Z,74.9
2017-07-10T12:55:40.401Z,75.0
2017-07-10T12:56:41.744Z,74.8
2017-07-10T12:57:43.092Z,75.5
2017-07-10T12:58:44.433Z,75.4
2017-07-10T12:59:45.780Z,75.2
2017-07-10T13:00:47.118Z,75.2
2017-07-10T13:01:48.463Z,74.6
2017-07-10T13:02:50.598Z,75.1
2017-07-10T13:03:51.938Z,75.6
2017-07-10T13:04:54.071Z,74.6
2017-07-10T13:05:55.412Z,75.2
2017-07-10T13:06:56.764Z,74.7
2017-07-10T13:07:58.109Z,73.9
2017-07-10T13:08:59.885Z,74.0
2017-07-10T13:10:01.241Z,73.6
2017-07-10T13:11:03.326Z,73.9
2017-07-10T13:12:04.665Z,73.6
2017-07-10T13:13:06.626Z,74.2
2017-07-10T13:14:07.975Z,72.3
2017-07-10T13:15:09.313Z,72.9
2017-07-10T13:16:10.677Z,73.9
2017-07-10T13:17:12.028Z,73.2
2017-07-10T13:18:13.380Z,73.8
2017-07-10T13:19:14.715Z,73.3
2017-07-10T13:20:16.064Z,73.2
2017-07-10T13:21:17.417Z,73.2
2017-07-10T13:22:18.759Z,73.3
2017-07-10T13:23:20.111Z,73.1
2017-07-10T13:24:21.455Z,72.5
2017-07-10T13:25:22.801Z,71.8
2017-07-10T13:26:24.159Z,72.2
2017-07-10T13:27:25.497Z,70.8
2017-07-10T13:28:26.843Z,70.2
2017-07-10T13:29:28.193Z,70.2
2017-07-10T13:30:29.555Z,69.4
2017-07-10T13:31:30.911Z,67.2
2017-07-10T13:32:32.266Z,66.3
2017-07-10T13:33:33.611Z,65.6
2017-07-10T13:34:34.957Z,66.0
2017-07-10T13:35:36.317Z,64.3
2017-07-10T13:36:38.552Z,62.3
2017-07-10T13:37:40.425Z,63.5
2017-07-10T13:38:41.779Z,62.3
2017-07-10T13:39:43.125Z,63.4
2017-07-10T13:40:44.727Z,63.8
2017-07-10T13:41:47.954Z,63.5
2017-07-10T13:42:49.116Z,63.2
2017-07-10T13:43:50.470Z,64.3
2017-07-10T13:44:51.823Z,62.8
2017-07-10T13:45:53.174Z,62.7
2017-07-10T13:46:55.142Z,63.0
2017-07-10T13:48:01.398Z,62.4
2017-07-10T13:49:14.483Z,61.4
2017-07-10T13:50:28.918Z,64.0
2017-07-10T13:51:43.242Z,64.5
2017-07-10T13:52:57.036Z,62.9
2017-07-10T13:54:21.081Z,62.1